Terminal Aerodrome Forecast
Issued by NWS

Home | Current Version | Previous Version | Text Only | Print | Product List | Glossary On
Versions: 1 2 3 4 5 6 7 8 9 10 11 12 13 14
958
FTUS46 KEKA 222347
TAFCEC
TAF
KCEC 222347Z 2300/2324 VRB03KT P6SM FEW150 SCT250
     FM230400 12005KT 6SM BR SCT200
     FM230800 15008KT P6SM BKN120 OVC200
     FM231500 16014G22KT P6SM BKN060 OVC100
     FM232200 17020G32KT P6SM VCSH OVC050=

USA.gov is the U.S. government's official web portal to all federal, state and local government web resources and services.